Depesze METAR lotnisk w Polsce

EPWA EPMO EPKK EPLL EPWR EPKT EPGD EPPO EPRZ EPSC EPLB EPBY EPZG EPSY EPCE EPDA EPDE EPIR EPKS EPLK EPLY EPMB EPMI EPMM EPNA EPOK EPPR EPPW EPRA EPSN EPTM

METAR – format kodowanego raportu o pogodzie używany w meteorologii lotniczej i prognozie pogody. METAR jest akronimem od ang. Meteorological Aerodrome Report. Typowy METAR zawiera informację o temperaturze, ciśnieniu, temperaturze punktu rosy, sile i kierunku wiatru, opadzie, pokrywie chmur, wysokości podstawy chmur, widzialności, lecz może zawierać też inne informacje (np. stan dróg startowych).

Warszawa-Okęcie (EPWA)

METAR = EPWA 270400Z 09007KT CAVOK 09/07 Q1022 NOSIG

STACJA........... EPWA - Warszawa-Okęcie (WAW)
POMIAR........... Mon Sep 27, 06:00 CEST
WIATR............ wschodni (E) z prędkością 13 km/h
WIDZIALNOŚĆ...... powyżej 10 kilometrów
CHMURY........... bezchmurne niebo
TEMPERATURA...... 9°C
T.PUNKTU ROSY.... 7°C
WILGOTNOŚĆ....... 87%
T.ODCZUWALNA..... 7°C
CIŚNIENIE........ 1022 hPa
CIŚN.BEZWZGL..... 1009 hPa
PROGNOZA......... bez nagłych zmian w ciągu 2h

Sprawdź też: Prognoza pogody Warszawa


Warszawa-Modlin (EPMO)

METAR = EPMO 270400Z 07008KT CAVOK 06/06 Q1023 =

STACJA........... EPMO - Warszawa-Modlin (WMI)
POMIAR........... Mon Sep 27, 06:00 CEST
WIATR............ wschodni północno-wschodni (ENE) z prędkością 15 km/h
WIDZIALNOŚĆ...... powyżej 10 kilometrów
CHMURY........... bezchmurne niebo
TEMPERATURA...... 6°C
T.PUNKTU ROSY.... 6°C
WILGOTNOŚĆ....... 100%
T.ODCZUWALNA..... 3°C
CIŚNIENIE........ 1023 hPa
CIŚN.BEZWZGL..... 1010 hPa

Sprawdź też: Prognoza pogody Nowy Dwór Mazowiecki


Kraków-Balice (EPKK)

METAR = EPKK 270400Z 05009KT 2500 BR OVC002 14/13 Q1019

STACJA........... EPKK - Kraków-Balice (KRK)
POMIAR........... Mon Sep 27, 06:00 CEST
WIATR............ północno-wschodni (NE) z prędkością 17 km/h
WIDZIALNOŚĆ...... 2500 metrów
WARUNKI.......... zamglenie 
CHMURY........... zachmurzenie całkowite (8/8)
TEMPERATURA...... 14°C
T.PUNKTU ROSY.... 13°C
WILGOTNOŚĆ....... 94%
CIŚNIENIE........ 1019 hPa
CIŚN.BEZWZGL..... 990 hPa

Sprawdź też: Prognoza pogody Kraków


Łódź-Lublinek (EPLL)

METAR = EPLL 270400Z 09006KT 060V120 CAVOK 11/10 Q1020

STACJA........... EPLL - Łódź-Lublinek (LCJ)
POMIAR........... Mon Sep 27, 06:00 CEST
WIATR............ wschodni (E) z prędkością 11 km/h
WIDZIALNOŚĆ...... powyżej 10 kilometrów
CHMURY........... bezchmurne niebo
TEMPERATURA...... 11°C
T.PUNKTU ROSY.... 10°C
WILGOTNOŚĆ....... 94%
CIŚNIENIE........ 1020 hPa
CIŚN.BEZWZGL..... 998 hPa

Sprawdź też: Prognoza pogody Łódź


Wrocław-Strachowice (EPWR)

METAR = EPWR 270400Z 11009KT CAVOK 14/13 Q1018

STACJA........... EPWR - Wrocław-Strachowice (WRO)
POMIAR........... Mon Sep 27, 06:00 CEST
WIATR............ wschodni południowo-wschodni (ESE) z prędkością 17 km/h
WIDZIALNOŚĆ...... powyżej 10 kilometrów
CHMURY........... bezchmurne niebo
TEMPERATURA...... 14°C
T.PUNKTU ROSY.... 13°C
WILGOTNOŚĆ....... 94%
CIŚNIENIE........ 1018 hPa
CIŚN.BEZWZGL..... 1003 hPa

Sprawdź też: Prognoza pogody Wrocław


Katowice-Pyrzowice (EPKT)

METAR = EPKT 270400Z 06005KT 4400 BR BKN004 12/12 Q1019

STACJA........... EPKT - Katowice-Pyrzowice (KTW)
POMIAR........... Mon Sep 27, 06:00 CEST
WIATR............ wschodni północno-wschodni (ENE) z prędkością 9 km/h
WIDZIALNOŚĆ...... 4400 metrów
WARUNKI.......... zamglenie 
CHMURY........... zachmurzenie średnie (5/8-7/8)
TEMPERATURA...... 12°C
T.PUNKTU ROSY.... 12°C
WILGOTNOŚĆ....... 100%
CIŚNIENIE........ 1019 hPa
CIŚN.BEZWZGL..... 983 hPa

Sprawdź też: Prognoza pogody Katowice


Gdańsk (EPGD)

METAR = EPGD 270400Z 12009KT CAVOK 08/07 Q1023

STACJA........... EPGD - Gdańsk im. Lecha Wałęsy (GDN)
POMIAR........... Mon Sep 27, 06:00 CEST
WIATR............ wschodni południowo-wschodni (ESE) z prędkością 17 km/h
WIDZIALNOŚĆ...... powyżej 10 kilometrów
CHMURY........... bezchmurne niebo
TEMPERATURA...... 8°C
T.PUNKTU ROSY.... 7°C
WILGOTNOŚĆ....... 93%
T.ODCZUWALNA..... 5°C
CIŚNIENIE........ 1023 hPa
CIŚN.BEZWZGL..... 1005 hPa

Sprawdź też: Prognoza pogody Gdańsk


Poznań-Ławica (EPPO)

METAR = EPPO 270400Z 09007KT 9999 BKN043 13/12 Q1019

STACJA........... EPPO - Poznań-Ławica (POZ)
POMIAR........... Mon Sep 27, 06:00 CEST
WIATR............ wschodni (E) z prędkością 13 km/h
WIDZIALNOŚĆ...... powyżej 10 kilometrów
CHMURY........... zachmurzenie średnie (5/8-7/8)
TEMPERATURA...... 13°C
T.PUNKTU ROSY.... 12°C
WILGOTNOŚĆ....... 94%
CIŚNIENIE........ 1019 hPa
CIŚN.BEZWZGL..... 1008 hPa

Sprawdź też: Prognoza pogody Poznań


Rzeszów-Jasionka (EPRZ)

METAR = EPRZ 270400Z 07007KT CAVOK 13/11 Q1020

STACJA........... EPRZ - Rzeszów-Jasionka (RZE)
POMIAR........... Mon Sep 27, 06:00 CEST
WIATR............ wschodni północno-wschodni (ENE) z prędkością 13 km/h
WIDZIALNOŚĆ...... powyżej 10 kilometrów
CHMURY........... bezchmurne niebo
TEMPERATURA...... 13°C
T.PUNKTU ROSY.... 11°C
WILGOTNOŚĆ....... 88%
CIŚNIENIE........ 1020 hPa
CIŚN.BEZWZGL..... 995 hPa

Sprawdź też: Prognoza pogody Rzeszów


Szczecin-Goleniów (EPSC)

METAR = EPSC 270400Z 10011KT CAVOK 14/12 Q1019

STACJA........... EPSC - Szczecin-Goleniów (SZZ)
POMIAR........... Mon Sep 27, 06:00 CEST
WIATR............ wschodni (E) z prędkością 20 km/h
WIDZIALNOŚĆ...... powyżej 10 kilometrów
CHMURY........... bezchmurne niebo
TEMPERATURA...... 14°C
T.PUNKTU ROSY.... 12°C
WILGOTNOŚĆ....... 88%
CIŚNIENIE........ 1019 hPa
CIŚN.BEZWZGL..... 1013 hPa

Sprawdź też: Prognoza pogody Szczecin


Lublin-Świdnik (EPLB)

METAR = EPLB 270400Z 06004KT 9999 MIFG NSC 05/05 Q1023 =

STACJA........... EPLB - Lublin-Świdnik (LUZ)
POMIAR........... Mon Sep 27, 06:00 CEST
WIATR............ wschodni północno-wschodni (ENE) z prędkością 7 km/h
WIDZIALNOŚĆ...... powyżej 10 kilometrów
WARUNKI.......... niska mgła 
CHMURY........... brak istotnych chmur
TEMPERATURA...... 5°C
T.PUNKTU ROSY.... 5°C
WILGOTNOŚĆ....... 100%
T.ODCZUWALNA..... 3°C
CIŚNIENIE........ 1023 hPa
CIŚN.BEZWZGL..... 998 hPa

Sprawdź też: Prognoza pogody Lublin


Bydgoszcz-Szwederowo (EPBY)

METAR = EPBY 270400Z 09006KT CAVOK 10/09 Q1021=

STACJA........... EPBY - Bydgoszcz-Szwederowo (BZG)
POMIAR........... Mon Sep 27, 06:00 CEST
WIATR............ wschodni (E) z prędkością 11 km/h
WIDZIALNOŚĆ...... powyżej 10 kilometrów
CHMURY........... bezchmurne niebo
TEMPERATURA...... 10°C
T.PUNKTU ROSY.... 9°C
WILGOTNOŚĆ....... 94%
T.ODCZUWALNA..... 8°C
CIŚNIENIE........ 1021 hPa
CIŚN.BEZWZGL..... 1012 hPa

Sprawdź też: Prognoza pogody Bydgoszcz


Zielona Góra-Babimost (EPZG)

METAR = EPZG 270400Z 04004KT 5000 BR NSC 13/13 Q1019 =

STACJA........... EPZG - Zielona Góra-Babimost (IEG)
POMIAR........... Mon Sep 27, 06:00 CEST
WIATR............ północno-wschodni (NE) z prędkością 7 km/h
WIDZIALNOŚĆ...... 5000 metrów
WARUNKI.......... zamglenie 
CHMURY........... brak istotnych chmur
TEMPERATURA...... 13°C
T.PUNKTU ROSY.... 13°C
WILGOTNOŚĆ....... 100%
CIŚNIENIE........ 1019 hPa
CIŚN.BEZWZGL..... 1012 hPa

Sprawdź też: Prognoza pogody Zielona Góra


Szymany Olsztyn-Mazury (EPSY)

METAR = EPSY 270400Z 04002KT 6000 MIFG NSC 05/05 Q1024=

STACJA........... EPSY - Olsztyn-Mazury (SZY)
POMIAR........... Mon Sep 27, 06:00 CEST
WIATR............ północno-wschodni (NE) z prędkością 4 km/h
WIDZIALNOŚĆ...... 6000 metrów
WARUNKI.......... niska mgła 
CHMURY........... brak istotnych chmur
TEMPERATURA...... 5°C
T.PUNKTU ROSY.... 5°C
WILGOTNOŚĆ....... 100%
CIŚNIENIE........ 1024 hPa
CIŚN.BEZWZGL..... 1006 hPa

Sprawdź też: Prognoza pogody Olsztyn


Cewice (EPCE)

METAR = EPCE 270400Z 10004KT 9999 SCT156 10/08 Q1022 RMK 100 090 4/4=

STACJA........... EPCE - Cewice
POMIAR........... Mon Sep 27, 06:00 CEST
WIATR............ wschodni (E) z prędkością 7 km/h
WIDZIALNOŚĆ...... powyżej 10 kilometrów
CHMURY........... zachmurzenie małe (3/8-4/8)
TEMPERATURA...... 10°C
T.PUNKTU ROSY.... 8°C
WILGOTNOŚĆ....... 88%
T.ODCZUWALNA..... 9°C
CIŚNIENIE........ 1022 hPa
CIŚN.BEZWZGL..... 1004 hPa

Darłowo (EPDA)

METAR = EPDA 270400Z 12006KT 9999 BKN057 15/12 Q1021 RMK 145 087 5/5=

STACJA........... EPDA - Darłowo
POMIAR........... Mon Sep 27, 06:00 CEST
WIATR............ wschodni południowo-wschodni (ESE) z prędkością 11 km/h
WIDZIALNOŚĆ...... powyżej 10 kilometrów
CHMURY........... zachmurzenie średnie (5/8-7/8)
TEMPERATURA...... 15°C
T.PUNKTU ROSY.... 12°C
WILGOTNOŚĆ....... 82%
CIŚNIENIE........ 1021 hPa
CIŚN.BEZWZGL..... 1021 hPa

Dęblin (EPDE)

METAR = EPDE 270400Z 06008KT CAVOK 06/06 Q1023 RMK 063 096 2/2=

STACJA........... EPDE - Dęblin
POMIAR........... Mon Sep 27, 06:00 CEST
WIATR............ wschodni północno-wschodni (ENE) z prędkością 15 km/h
WIDZIALNOŚĆ...... powyżej 10 kilometrów
CHMURY........... bezchmurne niebo
TEMPERATURA...... 6°C
T.PUNKTU ROSY.... 6°C
WILGOTNOŚĆ....... 100%
T.ODCZUWALNA..... 3°C
CIŚNIENIE........ 1023 hPa
CIŚN.BEZWZGL..... 1008 hPa

Inowrocław-Latkowo (EPIR)

METAR = EPIR 270400Z 08008KT CAVOK 09/08 Q1021 RMK 091 094 1/1=

STACJA........... EPIR - Inowrocław-Latkowo
POMIAR........... Mon Sep 27, 06:00 CEST
WIATR............ wschodni (E) z prędkością 15 km/h
WIDZIALNOŚĆ...... powyżej 10 kilometrów
CHMURY........... bezchmurne niebo
TEMPERATURA...... 9°C
T.PUNKTU ROSY.... 8°C
WILGOTNOŚĆ....... 94%
T.ODCZUWALNA..... 7°C
CIŚNIENIE........ 1021 hPa
CIŚN.BEZWZGL..... 1011 hPa

Poznań-Krzesiny (EPKS)

METAR = EPKS 270400Z 09009KT 9999 FEW040 SCT046 BKN180 13/13 Q1019 RMK 132 100 7/2=

STACJA........... EPKS - Poznań-Krzesiny
POMIAR........... Mon Sep 27, 06:00 CEST
WIATR............ wschodni (E) z prędkością 17 km/h
WIDZIALNOŚĆ...... powyżej 10 kilometrów
CHMURY........... zachmurzenie średnie (5/8-7/8)
TEMPERATURA...... 13°C
T.PUNKTU ROSY.... 13°C
WILGOTNOŚĆ....... 100%
CIŚNIENIE........ 1019 hPa
CIŚN.BEZWZGL..... 1009 hPa

Łask (EPLK)

METAR = EPLK 270400Z 10006KT CAVOK 12/12 Q1020 RMK 124 100 5/3=

STACJA........... EPLK - Łask
POMIAR........... Mon Sep 27, 06:00 CEST
WIATR............ wschodni (E) z prędkością 11 km/h
WIDZIALNOŚĆ...... powyżej 10 kilometrów
CHMURY........... bezchmurne niebo
TEMPERATURA...... 12°C
T.PUNKTU ROSY.... 12°C
WILGOTNOŚĆ....... 100%
CIŚNIENIE........ 1020 hPa
CIŚN.BEZWZGL..... 997 hPa

Łęczyca (EPLY)

METAR = EPLY 270400Z AUTO 06004KT 10/09 Q1021 RMK 103 092 ///=

STACJA........... EPLY - Łęczyca
POMIAR........... Mon Sep 27, 06:00 CEST
WIATR............ wschodni północno-wschodni (ENE) z prędkością 7 km/h
TEMPERATURA...... 10°C
T.PUNKTU ROSY.... 9°C
WILGOTNOŚĆ....... 94%
T.ODCZUWALNA..... 9°C
CIŚNIENIE........ 1021 hPa
CIŚN.BEZWZGL..... 1007 hPa

Malbork (EPMB)

METAR = EPMB 270400Z 07006KT CAVOK 07/07 Q1023 RMK 074 100 0/0=

STACJA........... EPMB - Malbork
POMIAR........... Mon Sep 27, 06:00 CEST
WIATR............ wschodni północno-wschodni (ENE) z prędkością 11 km/h
WIDZIALNOŚĆ...... powyżej 10 kilometrów
CHMURY........... bezchmurne niebo
TEMPERATURA...... 7°C
T.PUNKTU ROSY.... 7°C
WILGOTNOŚĆ....... 100%
T.ODCZUWALNA..... 5°C
CIŚNIENIE........ 1023 hPa
CIŚN.BEZWZGL..... 1022 hPa

Mirosławiec (EPMI)

METAR = EPMI 270400Z 11006KT 8000 NSC 11/11 Q1020 RMK 112 100 0/0=

STACJA........... EPMI - Mirosławiec
POMIAR........... Mon Sep 27, 06:00 CEST
WIATR............ wschodni południowo-wschodni (ESE) z prędkością 11 km/h
WIDZIALNOŚĆ...... 8000 metrów
CHMURY........... brak istotnych chmur
TEMPERATURA...... 11°C
T.PUNKTU ROSY.... 11°C
WILGOTNOŚĆ....... 100%
CIŚNIENIE........ 1020 hPa
CIŚN.BEZWZGL..... 1002 hPa

Mińsk Mazowiecki (EPMM)



Nadarzyce (EPNA)

METAR = EPNA 270400Z NIL=

STACJA........... EPNA - Nadarzyce
POMIAR........... Mon Sep 27, 06:00 CEST
DEPESZA.......... brak aktualnej prognozy w treści depeszy

Gdynia-Kosakowo (EPOK)

METAR = EPOK 270400Z 14005KT CAVOK 11/09 Q1023 RMK 107 087 0/0=

STACJA........... EPOK - Gdynia-Kosakowo
POMIAR........... Mon Sep 27, 06:00 CEST
WIATR............ południowo wschodni (SE) z prędkością 9 km/h
WIDZIALNOŚĆ...... powyżej 10 kilometrów
CHMURY........... bezchmurne niebo
TEMPERATURA...... 11°C
T.PUNKTU ROSY.... 9°C
WILGOTNOŚĆ....... 88%
CIŚNIENIE........ 1023 hPa
CIŚN.BEZWZGL..... 1018 hPa

Pruszcz Gdański (EPPR)

METAR = EPPR 270400Z 00000KT 1500 BR NSC 06/06 Q1023 RMK 062 100 0/0=

STACJA........... EPPR - Pruszcz Gdański
POMIAR........... Mon Sep 27, 06:00 CEST
WIATR............ bezwietrznie
WIDZIALNOŚĆ...... 1500 metrów
WARUNKI.......... zamglenie 
CHMURY........... brak istotnych chmur
TEMPERATURA...... 6°C
T.PUNKTU ROSY.... 6°C
WILGOTNOŚĆ....... 100%
CIŚNIENIE........ 1023 hPa
CIŚN.BEZWZGL..... 1023 hPa

Powidz (EPPW)

METAR = EPPW 270400Z 09010KT 9999 BKN024 13/13 Q1020 RMK 130 100 7/7=

STACJA........... EPPW - Powidz
POMIAR........... Mon Sep 27, 06:00 CEST
WIATR............ wschodni (E) z prędkością 19 km/h
WIDZIALNOŚĆ...... powyżej 10 kilometrów
CHMURY........... zachmurzenie średnie (5/8-7/8)
TEMPERATURA...... 13°C
T.PUNKTU ROSY.... 13°C
WILGOTNOŚĆ....... 100%
CIŚNIENIE........ 1020 hPa
CIŚN.BEZWZGL..... 1006 hPa

Radom-Sadków (EPRA)

METAR = EPRA 270400Z 09006KT CAVOK 09/08 Q1022 RMK 088 092 1/1=

STACJA........... EPRA - Radom-Sadków
POMIAR........... Mon Sep 27, 06:00 CEST
WIATR............ wschodni (E) z prędkością 11 km/h
WIDZIALNOŚĆ...... powyżej 10 kilometrów
CHMURY........... bezchmurne niebo
TEMPERATURA...... 9°C
T.PUNKTU ROSY.... 8°C
WILGOTNOŚĆ....... 94%
T.ODCZUWALNA..... 7°C
CIŚNIENIE........ 1022 hPa
CIŚN.BEZWZGL..... 999 hPa

Świdwin (EPSN)

METAR = EPSN 270400Z AUTO 13008KT 9999 NCD 12/11 Q1020 RMK 122 095 ///=

STACJA........... EPSN - Świdwin
POMIAR........... Mon Sep 27, 06:00 CEST
WIATR............ południowo wschodni (SE) z prędkością 15 km/h
WIDZIALNOŚĆ...... powyżej 10 kilometrów

Tomaszów Mazowiecki (EPTM)

METAR = EPTM 270400Z 07004KT CAVOK 09/09 Q1021 RMK 089 097 1/1=

STACJA........... EPTM - Tomaszów Mazowiecki
POMIAR........... Mon Sep 27, 06:00 CEST
WIATR............ wschodni północno-wschodni (ENE) z prędkością 7 km/h
WIDZIALNOŚĆ...... powyżej 10 kilometrów
CHMURY........... bezchmurne niebo
TEMPERATURA...... 9°C
T.PUNKTU ROSY.... 9°C
WILGOTNOŚĆ....... 100%
T.ODCZUWALNA..... 8°C
CIŚNIENIE........ 1021 hPa
CIŚN.BEZWZGL..... 1000 hPa